sensor_id;sensor_type;location;lat;lon;timestamp;P1;durP1;ratioP1;P2;durP2;ratioP2
52590;SDS011;38483;42.620;25.394;2023-04-24T00:02:08;7.53;;;5.60;;
52590;SDS011;38483;42.620;25.394;2023-04-24T00:04:38;10.63;;;6.77;;
52590;SDS011;38483;42.620;25.394;2023-04-24T00:07:08;8.00;;;5.60;;
52590;SDS011;38483;42.620;25.394;2023-04-24T00:09:35;8.80;;;5.87;;
52590;SDS011;38483;42.620;25.394;2023-04-24T00:12:02;8.03;;;5.90;;
52590;SDS011;38483;42.620;25.394;2023-04-24T00:14:32;8.13;;;5.87;;
52590;SDS011;38483;42.620;25.394;2023-04-24T00:16:59;9.33;;;6.03;;
52590;SDS011;38483;42.620;25.394;2023-04-24T00:19:26;9.97;;;5.90;;
52590;SDS011;38483;42.620;25.394;2023-04-24T00:21:54;8.37;;;5.90;;
52590;SDS011;38483;42.620;25.394;2023-04-24T00:24:21;9.90;;;6.17;;
52590;SDS011;38483;42.620;25.394;2023-04-24T00:26:48;9.73;;;5.97;;
52590;SDS011;38483;42.620;25.394;2023-04-24T00:29:15;9.27;;;5.80;;
52590;SDS011;38483;42.620;25.394;2023-04-24T00:31:42;9.50;;;5.93;;
52590;SDS011;38483;42.620;25.394;2023-04-24T00:34:09;9.13;;;5.90;;
52590;SDS011;38483;42.620;25.394;2023-04-24T00:36:38;10.07;;;6.20;;
52590;SDS011;38483;42.620;25.394;2023-04-24T00:39:06;10.27;;;5.90;;
52590;SDS011;38483;42.620;25.394;2023-04-24T00:41:36;9.97;;;6.17;;
52590;SDS011;38483;42.620;25.394;2023-04-24T00:44:03;9.10;;;6.50;;
52590;SDS011;38483;42.620;25.394;2023-04-24T00:46:31;8.20;;;5.73;;
52590;SDS011;38483;42.620;25.394;2023-04-24T00:48:59;7.27;;;6.03;;
52590;SDS011;38483;42.620;25.394;2023-04-24T00:51:26;8.07;;;5.93;;
52590;SDS011;38483;42.620;25.394;2023-04-24T00:53:54;11.07;;;5.80;;
52590;SDS011;38483;42.620;25.394;2023-04-24T00:56:21;8.47;;;5.50;;
52590;SDS011;38483;42.620;25.394;2023-04-24T00:58:48;10.77;;;6.03;;
52590;SDS011;38483;42.620;25.394;2023-04-24T01:01:16;6.90;;;6.20;;
52590;SDS011;38483;42.620;25.394;2023-04-24T01:03:49;10.67;;;7.23;;
52590;SDS011;38483;42.620;25.394;2023-04-24T01:06:18;7.73;;;6.10;;
52590;SDS011;38483;42.620;25.394;2023-04-24T01:08:46;9.23;;;7.17;;
52590;SDS011;38483;42.620;25.394;2023-04-24T01:11:14;9.03;;;6.87;;
52590;SDS011;38483;42.620;25.394;2023-04-24T01:13:41;12.77;;;7.17;;
52590;SDS011;38483;42.620;25.394;2023-04-24T01:16:09;10.33;;;6.67;;
52590;SDS011;38483;42.620;25.394;2023-04-24T01:18:37;7.93;;;6.53;;
52590;SDS011;38483;42.620;25.394;2023-04-24T01:21:04;9.17;;;7.00;;
52590;SDS011;38483;42.620;25.394;2023-04-24T01:23:35;11.30;;;6.93;;
52590;SDS011;38483;42.620;25.394;2023-04-24T01:26:02;9.40;;;7.00;;
52590;SDS011;38483;42.620;25.394;2023-04-24T01:28:29;8.37;;;6.13;;
52590;SDS011;38483;42.620;25.394;2023-04-24T01:30:57;10.93;;;6.80;;
52590;SDS011;38483;42.620;25.394;2023-04-24T01:33:24;9.97;;;6.47;;
52590;SDS011;38483;42.620;25.394;2023-04-24T01:35:52;8.80;;;6.33;;
52590;SDS011;38483;42.620;25.394;2023-04-24T01:38:19;8.37;;;6.60;;
52590;SDS011;38483;42.620;25.394;2023-04-24T01:40:47;9.07;;;6.27;;
52590;SDS011;38483;42.620;25.394;2023-04-24T01:43:14;21.03;;;8.03;;
52590;SDS011;38483;42.620;25.394;2023-04-24T01:45:41;10.67;;;6.70;;
52590;SDS011;38483;42.620;25.394;2023-04-24T01:48:08;8.67;;;7.03;;
52590;SDS011;38483;42.620;25.394;2023-04-24T01:50:35;8.27;;;6.70;;
52590;SDS011;38483;42.620;25.394;2023-04-24T01:53:02;9.63;;;6.67;;
52590;SDS011;38483;42.620;25.394;2023-04-24T01:55:30;10.60;;;7.00;;
52590;SDS011;38483;42.620;25.394;2023-04-24T01:57:57;12.00;;;7.13;;
52590;SDS011;38483;42.620;25.394;2023-04-24T02:00:26;8.70;;;6.70;;
52590;SDS011;38483;42.620;25.394;2023-04-24T02:02:53;8.63;;;6.53;;
52590;SDS011;38483;42.620;25.394;2023-04-24T02:05:20;12.03;;;7.30;;
52590;SDS011;38483;42.620;25.394;2023-04-24T02:07:47;10.27;;;7.10;;
52590;SDS011;38483;42.620;25.394;2023-04-24T02:10:15;10.03;;;7.53;;
52590;SDS011;38483;42.620;25.394;2023-04-24T02:12:42;9.33;;;6.97;;
52590;SDS011;38483;42.620;25.394;2023-04-24T02:15:10;7.47;;;6.10;;
52590;SDS011;38483;42.620;25.394;2023-04-24T02:17:37;8.73;;;6.70;;
52590;SDS011;38483;42.620;25.394;2023-04-24T02:20:05;8.57;;;6.40;;
52590;SDS011;38483;42.620;25.394;2023-04-24T02:22:33;9.63;;;7.10;;
52590;SDS011;38483;42.620;25.394;2023-04-24T02:25:02;10.80;;;6.73;;
52590;SDS011;38483;42.620;25.394;2023-04-24T02:27:32;8.60;;;6.40;;
52590;SDS011;38483;42.620;25.394;2023-04-24T02:29:59;9.40;;;6.53;;
52590;SDS011;38483;42.620;25.394;2023-04-24T02:32:31;8.23;;;6.10;;
52590;SDS011;38483;42.620;25.394;2023-04-24T02:34:58;9.67;;;6.27;;
52590;SDS011;38483;42.620;25.394;2023-04-24T02:37:25;10.57;;;6.33;;
52590;SDS011;38483;42.620;25.394;2023-04-24T02:39:52;9.63;;;6.87;;
52590;SDS011;38483;42.620;25.394;2023-04-24T02:42:20;8.03;;;6.13;;
52590;SDS011;38483;42.620;25.394;2023-04-24T02:44:47;8.87;;;6.97;;
52590;SDS011;38483;42.620;25.394;2023-04-24T02:47:14;8.77;;;7.07;;
52590;SDS011;38483;42.620;25.394;2023-04-24T02:49:41;8.13;;;6.57;;
52590;SDS011;38483;42.620;25.394;2023-04-24T02:52:10;9.87;;;7.27;;
52590;SDS011;38483;42.620;25.394;2023-04-24T02:54:37;10.23;;;7.00;;
52590;SDS011;38483;42.620;25.394;2023-04-24T02:57:04;10.97;;;7.17;;
52590;SDS011;38483;42.620;25.394;2023-04-24T02:59:31;11.17;;;6.40;;
52590;SDS011;38483;42.620;25.394;2023-04-24T03:01:58;11.10;;;7.07;;
52590;SDS011;38483;42.620;25.394;2023-04-24T03:04:26;11.23;;;7.10;;
52590;SDS011;38483;42.620;25.394;2023-04-24T03:06:53;10.53;;;6.97;;
52590;SDS011;38483;42.620;25.394;2023-04-24T03:09:21;11.32;;;7.35;;
52590;SDS011;38483;42.620;25.394;2023-04-24T03:11:48;11.90;;;7.13;;
52590;SDS011;38483;42.620;25.394;2023-04-24T03:14:16;10.27;;;6.60;;
52590;SDS011;38483;42.620;25.394;2023-04-24T03:16:43;10.80;;;7.23;;
52590;SDS011;38483;42.620;25.394;2023-04-24T03:19:10;9.63;;;6.13;;
52590;SDS011;38483;42.620;25.394;2023-04-24T03:21:46;18.90;;;9.87;;
52590;SDS011;38483;42.620;25.394;2023-04-24T03:24:13;9.63;;;7.10;;
52590;SDS011;38483;42.620;25.394;2023-04-24T03:26:40;14.13;;;6.90;;
52590;SDS011;38483;42.620;25.394;2023-04-24T03:29:25;10.00;;;6.13;;
52590;SDS011;38483;42.620;25.394;2023-04-24T03:31:55;9.00;;;6.47;;
52590;SDS011;38483;42.620;25.394;2023-04-24T03:34:22;9.67;;;6.60;;
52590;SDS011;38483;42.620;25.394;2023-04-24T03:36:50;10.37;;;6.47;;
52590;SDS011;38483;42.620;25.394;2023-04-24T03:39:17;9.27;;;6.27;;
52590;SDS011;38483;42.620;25.394;2023-04-24T03:41:52;11.27;;;6.77;;
52590;SDS011;38483;42.620;25.394;2023-04-24T03:44:24;7.60;;;6.17;;
52590;SDS011;38483;42.620;25.394;2023-04-24T03:46:51;16.77;;;10.43;;
52590;SDS011;38483;42.620;25.394;2023-04-24T03:49:20;15.03;;;6.63;;
52590;SDS011;38483;42.620;25.394;2023-04-24T03:51:48;14.77;;;7.67;;
52590;SDS011;38483;42.620;25.394;2023-04-24T03:54:24;11.67;;;6.17;;
52590;SDS011;38483;42.620;25.394;2023-04-24T03:56:53;9.17;;;6.33;;
52590;SDS011;38483;42.620;25.394;2023-04-24T03:59:20;8.33;;;6.10;;
52590;SDS011;38483;42.620;25.394;2023-04-24T04:01:58;11.47;;;6.60;;
52590;SDS011;38483;42.620;25.394;2023-04-24T04:04:25;11.53;;;6.77;;
52590;SDS011;38483;42.620;25.394;2023-04-24T04:06:52;8.90;;;6.30;;
52590;SDS011;38483;42.620;25.394;2023-04-24T04:09:20;11.00;;;6.30;;
52590;SDS011;38483;42.620;25.394;2023-04-24T04:11:48;11.53;;;6.70;;
52590;SDS011;38483;42.620;25.394;2023-04-24T04:14:15;11.10;;;6.97;;
52590;SDS011;38483;42.620;25.394;2023-04-24T04:16:46;11.43;;;6.43;;
52590;SDS011;38483;42.620;25.394;2023-04-24T04:19:14;10.43;;;6.80;;
52590;SDS011;38483;42.620;25.394;2023-04-24T04:21:41;8.63;;;6.07;;
52590;SDS011;38483;42.620;25.394;2023-04-24T04:24:34;10.83;;;7.20;;
52590;SDS011;38483;42.620;25.394;2023-04-24T04:27:05;10.23;;;6.20;;
52590;SDS011;38483;42.620;25.394;2023-04-24T04:29:40;10.73;;;6.63;;
52590;SDS011;38483;42.620;25.394;2023-04-24T04:32:09;12.43;;;7.00;;
52590;SDS011;38483;42.620;25.394;2023-04-24T04:34:37;15.50;;;8.00;;
52590;SDS011;38483;42.620;25.394;2023-04-24T04:37:05;13.80;;;8.83;;
52590;SDS011;38483;42.620;25.394;2023-04-24T04:39:59;14.77;;;7.93;;
52590;SDS011;38483;42.620;25.394;2023-04-24T04:42:32;12.93;;;7.33;;
52590;SDS011;38483;42.620;25.394;2023-04-24T04:45:00;14.80;;;7.27;;
52590;SDS011;38483;42.620;25.394;2023-04-24T04:47:41;10.63;;;6.47;;
52590;SDS011;38483;42.620;25.394;2023-04-24T04:50:08;8.10;;;5.77;;
52590;SDS011;38483;42.620;25.394;2023-04-24T04:52:36;8.63;;;6.00;;
52590;SDS011;38483;42.620;25.394;2023-04-24T04:55:13;8.57;;;6.00;;
52590;SDS011;38483;42.620;25.394;2023-04-24T04:58:00;12.30;;;6.13;;
52590;SDS011;38483;42.620;25.394;2023-04-24T05:00:28;7.60;;;5.50;;
52590;SDS011;38483;42.620;25.394;2023-04-24T05:03:06;7.73;;;5.97;;
52590;SDS011;38483;42.620;25.394;2023-04-24T05:05:51;10.80;;;5.77;;
52590;SDS011;38483;42.620;25.394;2023-04-24T05:08:19;8.83;;;6.30;;
52590;SDS011;38483;42.620;25.394;2023-04-24T05:10:54;7.27;;;5.67;;
52590;SDS011;38483;42.620;25.394;2023-04-24T05:13:23;8.03;;;6.00;;
52590;SDS011;38483;42.620;25.394;2023-04-24T05:16:07;7.63;;;5.77;;
52590;SDS011;38483;42.620;25.394;2023-04-24T05:18:35;8.53;;;6.70;;
52590;SDS011;38483;42.620;25.394;2023-04-24T05:21:04;10.30;;;6.07;;
52590;SDS011;38483;42.620;25.394;2023-04-24T05:23:34;7.93;;;5.63;;
52590;SDS011;38483;42.620;25.394;2023-04-24T05:26:01;12.43;;;7.93;;
52590;SDS011;38483;42.620;25.394;2023-04-24T05:28:31;8.43;;;6.87;;
52590;SDS011;38483;42.620;25.394;2023-04-24T05:31:06;9.53;;;6.63;;
52590;SDS011;38483;42.620;25.394;2023-04-24T05:33:34;9.90;;;5.80;;
52590;SDS011;38483;42.620;25.394;2023-04-24T05:36:01;10.57;;;7.07;;
52590;SDS011;38483;42.620;25.394;2023-04-24T05:38:29;11.07;;;6.50;;
52590;SDS011;38483;42.620;25.394;2023-04-24T05:40:56;12.23;;;6.57;;
52590;SDS011;38483;42.620;25.394;2023-04-24T05:43:23;10.90;;;6.63;;
52590;SDS011;38483;42.620;25.394;2023-04-24T05:45:51;9.90;;;6.87;;
52590;SDS011;38483;42.620;25.394;2023-04-24T05:48:20;9.23;;;5.93;;
52590;SDS011;38483;42.620;25.394;2023-04-24T05:50:49;13.63;;;7.50;;
52590;SDS011;38483;42.620;25.394;2023-04-24T05:53:19;10.40;;;6.17;;
52590;SDS011;38483;42.620;25.394;2023-04-24T05:55:47;16.87;;;7.37;;
52590;SDS011;38483;42.620;25.394;2023-04-24T05:58:14;13.90;;;7.00;;
52590;SDS011;38483;42.620;25.394;2023-04-24T06:00:42;10.80;;;7.53;;
52590;SDS011;38483;42.620;25.394;2023-04-24T06:03:12;12.10;;;6.43;;
52590;SDS011;38483;42.620;25.394;2023-04-24T06:05:41;11.43;;;6.17;;
52590;SDS011;38483;42.620;25.394;2023-04-24T06:08:09;8.23;;;6.67;;
52590;SDS011;38483;42.620;25.394;2023-04-24T06:10:41;12.67;;;6.97;;
52590;SDS011;38483;42.620;25.394;2023-04-24T06:13:14;15.37;;;6.63;;
52590;SDS011;38483;42.620;25.394;2023-04-24T06:15:56;11.20;;;7.17;;
52590;SDS011;38483;42.620;25.394;2023-04-24T06:18:31;12.07;;;6.30;;
52590;SDS011;38483;42.620;25.394;2023-04-24T06:20:58;13.73;;;6.40;;
52590;SDS011;38483;42.620;25.394;2023-04-24T06:23:26;11.33;;;7.20;;
52590;SDS011;38483;42.620;25.394;2023-04-24T06:25:53;11.20;;;5.80;;
52590;SDS011;38483;42.620;25.394;2023-04-24T06:28:20;13.63;;;7.03;;
52590;SDS011;38483;42.620;25.394;2023-04-24T06:30:47;16.73;;;7.00;;
52590;SDS011;38483;42.620;25.394;2023-04-24T06:33:14;12.60;;;6.10;;
52590;SDS011;38483;42.620;25.394;2023-04-24T06:35:47;15.40;;;7.27;;
52590;SDS011;38483;42.620;25.394;2023-04-24T06:38:14;13.93;;;6.13;;
52590;SDS011;38483;42.620;25.394;2023-04-24T06:40:43;20.63;;;7.90;;
52590;SDS011;38483;42.620;25.394;2023-04-24T06:43:10;10.03;;;5.90;;
52590;SDS011;38483;42.620;25.394;2023-04-24T06:45:38;10.20;;;5.87;;
52590;SDS011;38483;42.620;25.394;2023-04-24T06:48:06;11.73;;;5.50;;
52590;SDS011;38483;42.620;25.394;2023-04-24T06:50:33;10.60;;;5.83;;
52590;SDS011;38483;42.620;25.394;2023-04-24T06:53:00;12.23;;;7.97;;
52590;SDS011;38483;42.620;25.394;2023-04-24T06:55:27;12.67;;;6.27;;
52590;SDS011;38483;42.620;25.394;2023-04-24T06:57:54;12.30;;;8.60;;
52590;SDS011;38483;42.620;25.394;2023-04-24T07:00:21;10.97;;;4.90;;
52590;SDS011;38483;42.620;25.394;2023-04-24T07:02:51;9.47;;;5.87;;
52590;SDS011;38483;42.620;25.394;2023-04-24T07:05:18;9.60;;;5.23;;
52590;SDS011;38483;42.620;25.394;2023-04-24T07:07:48;9.80;;;5.10;;
52590;SDS011;38483;42.620;25.394;2023-04-24T07:10:17;8.97;;;5.67;;
52590;SDS011;38483;42.620;25.394;2023-04-24T07:12:45;9.30;;;5.70;;
52590;SDS011;38483;42.620;25.394;2023-04-24T07:15:13;8.63;;;5.80;;
52590;SDS011;38483;42.620;25.394;2023-04-24T07:17:40;7.10;;;6.03;;
52590;SDS011;38483;42.620;25.394;2023-04-24T07:20:10;8.00;;;4.73;;
52590;SDS011;38483;42.620;25.394;2023-04-24T07:22:38;12.57;;;5.83;;
52590;SDS011;38483;42.620;25.394;2023-04-24T07:25:05;10.47;;;6.07;;
52590;SDS011;38483;42.620;25.394;2023-04-24T07:27:34;11.53;;;5.53;;
52590;SDS011;38483;42.620;25.394;2023-04-24T07:30:05;14.47;;;7.47;;
52590;SDS011;38483;42.620;25.394;2023-04-24T07:32:33;8.87;;;5.20;;
52590;SDS011;38483;42.620;25.394;2023-04-24T07:35:00;9.63;;;5.20;;
52590;SDS011;38483;42.620;25.394;2023-04-24T07:37:28;7.33;;;4.37;;
52590;SDS011;38483;42.620;25.394;2023-04-24T07:39:56;7.70;;;4.80;;
52590;SDS011;38483;42.620;25.394;2023-04-24T07:42:23;8.80;;;4.60;;
52590;SDS011;38483;42.620;25.394;2023-04-24T07:44:50;6.03;;;4.93;;
52590;SDS011;38483;42.620;25.394;2023-04-24T07:47:17;8.17;;;4.97;;
52590;SDS011;38483;42.620;25.394;2023-04-24T07:49:44;12.03;;;5.30;;
52590;SDS011;38483;42.620;25.394;2023-04-24T07:52:11;8.47;;;5.60;;
52590;SDS011;38483;42.620;25.394;2023-04-24T07:54:38;11.13;;;5.87;;
52590;SDS011;38483;42.620;25.394;2023-04-24T07:57:08;10.63;;;6.20;;
52590;SDS011;38483;42.620;25.394;2023-04-24T07:59:35;12.63;;;7.03;;
52590;SDS011;38483;42.620;25.394;2023-04-24T08:02:03;11.73;;;5.53;;
52590;SDS011;38483;42.620;25.394;2023-04-24T08:04:30;7.97;;;4.90;;
52590;SDS011;38483;42.620;25.394;2023-04-24T08:06:57;7.37;;;4.80;;
52590;SDS011;38483;42.620;25.394;2023-04-24T08:09:24;5.83;;;4.50;;
52590;SDS011;38483;42.620;25.394;2023-04-24T08:11:53;7.53;;;4.70;;
52590;SDS011;38483;42.620;25.394;2023-04-24T08:14:20;8.27;;;5.53;;
52590;SDS011;38483;42.620;25.394;2023-04-24T08:16:47;6.97;;;4.70;;
52590;SDS011;38483;42.620;25.394;2023-04-24T08:19:14;8.90;;;5.37;;
52590;SDS011;38483;42.620;25.394;2023-04-24T08:21:42;5.27;;;4.77;;
52590;SDS011;38483;42.620;25.394;2023-04-24T08:24:09;9.60;;;5.33;;
52590;SDS011;38483;42.620;25.394;2023-04-24T08:26:37;6.07;;;4.53;;
52590;SDS011;38483;42.620;25.394;2023-04-24T08:29:04;5.70;;;4.87;;
52590;SDS011;38483;42.620;25.394;2023-04-24T08:31:31;7.33;;;5.43;;
52590;SDS011;38483;42.620;25.394;2023-04-24T08:33:59;9.93;;;5.50;;
52590;SDS011;38483;42.620;25.394;2023-04-24T08:36:26;6.10;;;4.90;;
52590;SDS011;38483;42.620;25.394;2023-04-24T08:39:05;6.43;;;4.23;;
52590;SDS011;38483;42.620;25.394;2023-04-24T08:41:33;8.57;;;4.80;;
52590;SDS011;38483;42.620;25.394;2023-04-24T08:44:01;9.50;;;4.83;;
52590;SDS011;38483;42.620;25.394;2023-04-24T08:46:29;6.67;;;4.47;;
52590;SDS011;38483;42.620;25.394;2023-04-24T08:48:57;8.87;;;4.43;;
52590;SDS011;38483;42.620;25.394;2023-04-24T08:51:25;10.73;;;5.13;;
52590;SDS011;38483;42.620;25.394;2023-04-24T08:53:53;7.83;;;4.70;;
52590;SDS011;38483;42.620;25.394;2023-04-24T08:56:21;8.53;;;4.80;;
52590;SDS011;38483;42.620;25.394;2023-04-24T08:58:53;7.10;;;4.83;;
52590;SDS011;38483;42.620;25.394;2023-04-24T09:01:21;7.20;;;4.57;;
52590;SDS011;38483;42.620;25.394;2023-04-24T09:03:50;6.47;;;4.87;;
52590;SDS011;38483;42.620;25.394;2023-04-24T09:06:20;7.77;;;5.10;;
52590;SDS011;38483;42.620;25.394;2023-04-24T09:08:49;7.57;;;4.60;;
52590;SDS011;38483;42.620;25.394;2023-04-24T09:11:17;8.77;;;3.97;;
52590;SDS011;38483;42.620;25.394;2023-04-24T09:13:45;7.33;;;3.90;;
52590;SDS011;38483;42.620;25.394;2023-04-24T09:16:12;4.07;;;3.67;;
52590;SDS011;38483;42.620;25.394;2023-04-24T09:18:41;6.83;;;4.23;;
52590;SDS011;38483;42.620;25.394;2023-04-24T09:21:08;6.83;;;4.00;;
52590;SDS011;38483;42.620;25.394;2023-04-24T09:23:36;7.10;;;4.50;;
52590;SDS011;38483;42.620;25.394;2023-04-24T09:26:03;6.70;;;4.40;;
52590;SDS011;38483;42.620;25.394;2023-04-24T09:28:37;9.17;;;4.63;;
52590;SDS011;38483;42.620;25.394;2023-04-24T09:33:53;9.00;;;4.73;;
52590;SDS011;38483;42.620;25.394;2023-04-24T09:36:24;6.77;;;4.30;;
52590;SDS011;38483;42.620;25.394;2023-04-24T09:38:57;8.77;;;4.83;;
52590;SDS011;38483;42.620;25.394;2023-04-24T09:41:25;7.40;;;4.87;;
52590;SDS011;38483;42.620;25.394;2023-04-24T09:43:56;8.77;;;4.67;;
52590;SDS011;38483;42.620;25.394;2023-04-24T09:46:30;6.87;;;4.90;;
52590;SDS011;38483;42.620;25.394;2023-04-24T09:49:08;9.53;;;4.60;;
52590;SDS011;38483;42.620;25.394;2023-04-24T09:51:37;8.37;;;4.00;;
52590;SDS011;38483;42.620;25.394;2023-04-24T09:54:11;10.10;;;4.93;;
52590;SDS011;38483;42.620;25.394;2023-04-24T09:56:46;5.70;;;4.30;;
52590;SDS011;38483;42.620;25.394;2023-04-24T09:59:15;7.27;;;4.73;;
52590;SDS011;38483;42.620;25.394;2023-04-24T10:01:43;7.10;;;5.00;;
52590;SDS011;38483;42.620;25.394;2023-04-24T10:04:24;9.70;;;4.87;;
52590;SDS011;38483;42.620;25.394;2023-04-24T10:06:53;8.27;;;4.60;;
52590;SDS011;38483;42.620;25.394;2023-04-24T10:09:23;8.27;;;5.10;;
52590;SDS011;38483;42.620;25.394;2023-04-24T10:11:52;7.07;;;4.60;;
52590;SDS011;38483;42.620;25.394;2023-04-24T10:14:24;8.33;;;5.07;;
52590;SDS011;38483;42.620;25.394;2023-04-24T10:16:55;8.70;;;5.23;;
52590;SDS011;38483;42.620;25.394;2023-04-24T10:19:25;8.30;;;4.60;;
52590;SDS011;38483;42.620;25.394;2023-04-24T10:21:53;7.07;;;4.17;;
52590;SDS011;38483;42.620;25.394;2023-04-24T10:24:22;7.67;;;4.47;;
52590;SDS011;38483;42.620;25.394;2023-04-24T10:26:51;8.53;;;4.83;;
52590;SDS011;38483;42.620;25.394;2023-04-24T10:29:19;6.57;;;4.73;;
52590;SDS011;38483;42.620;25.394;2023-04-24T10:31:46;5.23;;;4.37;;
52590;SDS011;38483;42.620;25.394;2023-04-24T10:34:15;6.03;;;4.33;;
52590;SDS011;38483;42.620;25.394;2023-04-24T10:36:46;6.47;;;4.30;;
52590;SDS011;38483;42.620;25.394;2023-04-24T10:39:17;7.80;;;4.67;;
52590;SDS011;38483;42.620;25.394;2023-04-24T10:41:53;11.57;;;5.63;;
52590;SDS011;38483;42.620;25.394;2023-04-24T10:44:24;6.40;;;4.70;;
52590;SDS011;38483;42.620;25.394;2023-04-24T10:46:55;10.90;;;5.40;;
52590;SDS011;38483;42.620;25.394;2023-04-24T10:49:29;8.97;;;5.70;;
52590;SDS011;38483;42.620;25.394;2023-04-24T10:52:01;6.30;;;5.33;;
52590;SDS011;38483;42.620;25.394;2023-04-24T10:54:35;6.77;;;4.80;;
52590;SDS011;38483;42.620;25.394;2023-04-24T10:59:49;8.10;;;4.73;;
52590;SDS011;38483;42.620;25.394;2023-04-24T11:02:18;6.40;;;4.70;;
52590;SDS011;38483;42.620;25.394;2023-04-24T11:04:45;9.13;;;4.80;;
52590;SDS011;38483;42.620;25.394;2023-04-24T11:07:13;9.90;;;5.23;;
52590;SDS011;38483;42.620;25.394;2023-04-24T11:09:40;8.00;;;5.10;;
52590;SDS011;38483;42.620;25.394;2023-04-24T11:12:10;8.73;;;4.90;;
52590;SDS011;38483;42.620;25.394;2023-04-24T11:17:41;11.83;;;5.90;;
52590;SDS011;38483;42.620;25.394;2023-04-24T11:20:10;11.63;;;4.77;;
52590;SDS011;38483;42.620;25.394;2023-04-24T11:22:53;6.47;;;5.13;;
52590;SDS011;38483;42.620;25.394;2023-04-24T11:25:22;9.67;;;5.57;;
52590;SDS011;38483;42.620;25.394;2023-04-24T11:27:49;6.67;;;4.43;;
52590;SDS011;38483;42.620;25.394;2023-04-24T11:30:17;7.70;;;4.77;;
52590;SDS011;38483;42.620;25.394;2023-04-24T11:32:52;6.57;;;5.10;;
52590;SDS011;38483;42.620;25.394;2023-04-24T11:35:21;7.07;;;4.83;;
52590;SDS011;38483;42.620;25.394;2023-04-24T11:37:52;6.67;;;5.10;;
52590;SDS011;38483;42.620;25.394;2023-04-24T11:40:23;8.77;;;5.50;;
52590;SDS011;38483;42.620;25.394;2023-04-24T11:42:50;10.37;;;5.57;;
52590;SDS011;38483;42.620;25.394;2023-04-24T11:45:21;9.20;;;5.60;;
52590;SDS011;38483;42.620;25.394;2023-04-24T11:47:49;7.63;;;5.30;;
52590;SDS011;38483;42.620;25.394;2023-04-24T11:50:17;7.17;;;5.43;;
52590;SDS011;38483;42.620;25.394;2023-04-24T11:52:47;9.47;;;6.27;;
52590;SDS011;38483;42.620;25.394;2023-04-24T11:57:47;7.57;;;5.00;;
52590;SDS011;38483;42.620;25.394;2023-04-24T12:00:19;8.77;;;4.97;;
52590;SDS011;38483;42.620;25.394;2023-04-24T12:02:49;5.90;;;5.10;;
52590;SDS011;38483;42.620;25.394;2023-04-24T12:05:24;5.53;;;4.33;;
52590;SDS011;38483;42.620;25.394;2023-04-24T12:08:49;7.70;;;4.63;;
52590;SDS011;38483;42.620;25.394;2023-04-24T12:11:19;7.17;;;4.73;;
52590;SDS011;38483;42.620;25.394;2023-04-24T12:13:46;9.67;;;5.00;;
52590;SDS011;38483;42.620;25.394;2023-04-24T12:16:13;7.70;;;5.13;;
52590;SDS011;38483;42.620;25.394;2023-04-24T12:18:41;8.97;;;4.77;;
52590;SDS011;38483;42.620;25.394;2023-04-24T12:21:20;5.00;;;4.27;;
52590;SDS011;38483;42.620;25.394;2023-04-24T12:23:49;5.77;;;4.77;;
52590;SDS011;38483;42.620;25.394;2023-04-24T12:26:18;8.73;;;4.60;;
52590;SDS011;38483;42.620;25.394;2023-04-24T12:28:47;9.43;;;5.27;;
52590;SDS011;38483;42.620;25.394;2023-04-24T12:31:17;9.17;;;5.03;;
52590;SDS011;38483;42.620;25.394;2023-04-24T12:33:47;9.60;;;5.23;;
52590;SDS011;38483;42.620;25.394;2023-04-24T12:36:14;6.60;;;4.80;;
52590;SDS011;38483;42.620;25.394;2023-04-24T12:38:43;8.87;;;5.40;;
52590;SDS011;38483;42.620;25.394;2023-04-24T12:41:13;6.97;;;5.37;;
52590;SDS011;38483;42.620;25.394;2023-04-24T12:43:53;10.30;;;5.40;;
52590;SDS011;38483;42.620;25.394;2023-04-24T12:46:20;6.17;;;4.73;;
52590;SDS011;38483;42.620;25.394;2023-04-24T12:48:48;6.67;;;4.90;;
52590;SDS011;38483;42.620;25.394;2023-04-24T12:51:15;8.13;;;4.67;;
52590;SDS011;38483;42.620;25.394;2023-04-24T12:53:42;7.93;;;5.27;;
52590;SDS011;38483;42.620;25.394;2023-04-24T12:56:09;8.40;;;6.10;;
52590;SDS011;38483;42.620;25.394;2023-04-24T12:58:37;7.87;;;5.77;;
52590;SDS011;38483;42.620;25.394;2023-04-24T13:01:04;7.87;;;5.60;;
52590;SDS011;38483;42.620;25.394;2023-04-24T13:03:31;7.10;;;5.60;;
52590;SDS011;38483;42.620;25.394;2023-04-24T13:05:59;7.67;;;5.93;;
52590;SDS011;38483;42.620;25.394;2023-04-24T13:08:26;7.17;;;5.43;;
52590;SDS011;38483;42.620;25.394;2023-04-24T13:10:54;6.60;;;5.90;;
52590;SDS011;38483;42.620;25.394;2023-04-24T13:13:21;8.57;;;5.40;;
52590;SDS011;38483;42.620;25.394;2023-04-24T13:15:48;10.77;;;6.20;;
52590;SDS011;38483;42.620;25.394;2023-04-24T13:18:15;10.37;;;5.50;;
52590;SDS011;38483;42.620;25.394;2023-04-24T13:20:43;11.63;;;5.93;;
52590;SDS011;38483;42.620;25.394;2023-04-24T13:23:10;7.93;;;5.50;;
52590;SDS011;38483;42.620;25.394;2023-04-24T13:25:38;6.77;;;5.50;;
52590;SDS011;38483;42.620;25.394;2023-04-24T13:28:05;8.93;;;5.17;;
52590;SDS011;38483;42.620;25.394;2023-04-24T13:30:32;10.27;;;5.67;;
52590;SDS011;38483;42.620;25.394;2023-04-24T13:33:00;11.80;;;5.77;;
52590;SDS011;38483;42.620;25.394;2023-04-24T13:35:27;5.97;;;5.27;;
52590;SDS011;38483;42.620;25.394;2023-04-24T13:37:54;6.73;;;5.43;;
52590;SDS011;38483;42.620;25.394;2023-04-24T13:40:21;7.03;;;5.43;;
52590;SDS011;38483;42.620;25.394;2023-04-24T13:42:48;8.83;;;5.33;;
52590;SDS011;38483;42.620;25.394;2023-04-24T13:45:16;9.43;;;5.53;;
52590;SDS011;38483;42.620;25.394;2023-04-24T13:47:51;7.43;;;5.47;;
52590;SDS011;38483;42.620;25.394;2023-04-24T13:50:57;6.00;;;5.33;;
52590;SDS011;38483;42.620;25.394;2023-04-24T13:53:24;8.83;;;5.80;;
52590;SDS011;38483;42.620;25.394;2023-04-24T13:55:51;7.27;;;5.20;;
52590;SDS011;38483;42.620;25.394;2023-04-24T13:58:18;5.90;;;5.30;;
52590;SDS011;38483;42.620;25.394;2023-04-24T14:00:47;7.80;;;5.63;;
52590;SDS011;38483;42.620;25.394;2023-04-24T14:03:14;10.20;;;5.73;;
52590;SDS011;38483;42.620;25.394;2023-04-24T14:05:42;7.50;;;5.40;;
52590;SDS011;38483;42.620;25.394;2023-04-24T14:08:09;7.57;;;5.40;;
52590;SDS011;38483;42.620;25.394;2023-04-24T14:10:36;5.80;;;5.17;;
52590;SDS011;38483;42.620;25.394;2023-04-24T14:13:04;10.77;;;5.37;;
52590;SDS011;38483;42.620;25.394;2023-04-24T14:15:31;7.50;;;5.13;;
52590;SDS011;38483;42.620;25.394;2023-04-24T14:17:58;7.17;;;5.67;;
52590;SDS011;38483;42.620;25.394;2023-04-24T14:20:25;8.90;;;4.90;;
52590;SDS011;38483;42.620;25.394;2023-04-24T14:22:52;8.90;;;5.50;;
52590;SDS011;38483;42.620;25.394;2023-04-24T14:25:20;6.70;;;4.67;;
52590;SDS011;38483;42.620;25.394;2023-04-24T14:27:49;5.93;;;5.10;;
52590;SDS011;38483;42.620;25.394;2023-04-24T14:30:16;8.13;;;6.17;;
52590;SDS011;38483;42.620;25.394;2023-04-24T14:32:44;9.77;;;6.73;;
52590;SDS011;38483;42.620;25.394;2023-04-24T14:35:11;7.63;;;6.83;;
52590;SDS011;38483;42.620;25.394;2023-04-24T14:37:38;11.27;;;7.03;;
52590;SDS011;38483;42.620;25.394;2023-04-24T14:40:08;8.23;;;6.00;;
52590;SDS011;38483;42.620;25.394;2023-04-24T14:42:55;8.80;;;5.33;;
52590;SDS011;38483;42.620;25.394;2023-04-24T14:45:24;8.00;;;5.37;;
52590;SDS011;38483;42.620;25.394;2023-04-24T14:47:52;8.33;;;5.67;;
52590;SDS011;38483;42.620;25.394;2023-04-24T14:50:20;20.33;;;6.70;;
52590;SDS011;38483;42.620;25.394;2023-04-24T14:52:50;7.37;;;5.57;;
52590;SDS011;38483;42.620;25.394;2023-04-24T14:55:17;7.23;;;5.37;;